sensor_id;sensor_type;location;lat;lon;timestamp;pressure;altitude;pressure_sealevel;temperature;humidity
8523;BME280;4299;42.202;24.736;2022-07-23T00:01:26;99675.91;;;20.89;nan
8523;BME280;4299;42.202;24.736;2022-07-23T00:03:54;99674.47;;;20.85;nan
8523;BME280;4299;42.202;24.736;2022-07-23T00:06:21;99667.97;;;20.78;nan
8523;BME280;4299;42.202;24.736;2022-07-23T00:08:49;99665.41;;;20.76;nan
8523;BME280;4299;42.202;24.736;2022-07-23T00:11:16;99673.69;;;20.75;nan
8523;BME280;4299;42.202;24.736;2022-07-23T00:13:43;99673.38;;;20.78;nan
8523;BME280;4299;42.202;24.736;2022-07-23T00:16:10;99669.41;;;20.72;nan
8523;BME280;4299;42.202;24.736;2022-07-23T00:18:36;99674.22;;;20.78;nan
8523;BME280;4299;42.202;24.736;2022-07-23T00:21:03;99680.19;;;20.82;nan
8523;BME280;4299;42.202;24.736;2022-07-23T00:23:30;99672.38;;;20.79;nan
8523;BME280;4299;42.202;24.736;2022-07-23T00:25:58;99667.38;;;20.84;nan
8523;BME280;4299;42.202;24.736;2022-07-23T00:28:25;99669.69;;;20.79;nan
8523;BME280;4299;42.202;24.736;2022-07-23T00:30:52;99669.00;;;20.67;nan
8523;BME280;4299;42.202;24.736;2022-07-23T00:33:18;99666.63;;;20.54;nan
8523;BME280;4299;42.202;24.736;2022-07-23T00:35:45;99669.16;;;20.46;nan
8523;BME280;4299;42.202;24.736;2022-07-23T00:38:12;99674.28;;;20.40;nan
8523;BME280;4299;42.202;24.736;2022-07-23T00:40:39;99668.50;;;20.44;nan
8523;BME280;4299;42.202;24.736;2022-07-23T00:43:07;99668.50;;;20.44;nan
8523;BME280;4299;42.202;24.736;2022-07-23T00:45:34;99672.84;;;20.26;nan
8523;BME280;4299;42.202;24.736;2022-07-23T00:48:01;99673.16;;;20.23;nan
8523;BME280;4299;42.202;24.736;2022-07-23T00:50:28;99671.72;;;20.19;nan
8523;BME280;4299;42.202;24.736;2022-07-23T00:52:55;99674.59;;;20.08;nan
8523;BME280;4299;42.202;24.736;2022-07-23T00:55:22;99675.97;;;20.12;nan
8523;BME280;4299;42.202;24.736;2022-07-23T00:57:49;99674.28;;;20.11;nan
8523;BME280;4299;42.202;24.736;2022-07-23T01:00:18;99673.59;;;20.09;nan
8523;BME280;4299;42.202;24.736;2022-07-23T01:02:45;99672.88;;;20.07;nan
8523;BME280;4299;42.202;24.736;2022-07-23T01:05:12;99672.31;;;20.13;nan
8523;BME280;4299;42.202;24.736;2022-07-23T01:07:38;99672.03;;;20.16;nan
8523;BME280;4299;42.202;24.736;2022-07-23T01:10:06;99671.47;;;20.22;nan
8523;BME280;4299;42.202;24.736;2022-07-23T01:12:54;99666.91;;;20.32;nan
8523;BME280;4299;42.202;24.736;2022-07-23T01:15:22;99671.72;;;20.38;nan
8523;BME280;4299;42.202;24.736;2022-07-23T01:17:49;99671.72;;;20.38;nan
8523;BME280;4299;42.202;24.736;2022-07-23T01:20:16;99666.34;;;20.38;nan
8523;BME280;4299;42.202;24.736;2022-07-23T01:22:44;99670.59;;;20.41;nan
8523;BME280;4299;42.202;24.736;2022-07-23T01:25:11;99679.69;;;20.40;nan
8523;BME280;4299;42.202;24.736;2022-07-23T01:27:38;99674.97;;;20.32;nan
8523;BME280;4299;42.202;24.736;2022-07-23T01:30:06;99676.25;;;20.28;nan
8523;BME280;4299;42.202;24.736;2022-07-23T01:32:33;99671.72;;;20.19;nan
8523;BME280;4299;42.202;24.736;2022-07-23T01:35:00;99681.38;;;20.12;nan
8523;BME280;4299;42.202;24.736;2022-07-23T01:37:27;99663.94;;;19.97;nan
8523;BME280;4299;42.202;24.736;2022-07-23T01:39:55;99667.63;;;19.96;nan
8523;BME280;4299;42.202;24.736;2022-07-23T01:42:22;99669.47;;;19.86;nan
8523;BME280;4299;42.202;24.736;2022-07-23T01:44:49;99670.56;;;19.73;nan
8523;BME280;4299;42.202;24.736;2022-07-23T01:47:16;99681.88;;;19.67;nan
8523;BME280;4299;42.202;24.736;2022-07-23T01:49:43;99676.81;;;19.64;nan
8523;BME280;4299;42.202;24.736;2022-07-23T01:52:09;99684.16;;;19.62;nan
8523;BME280;4299;42.202;24.736;2022-07-23T01:54:38;99674.13;;;19.64;nan
8523;BME280;4299;42.202;24.736;2022-07-23T01:57:06;99677.34;;;19.58;nan
8523;BME280;4299;42.202;24.736;2022-07-23T01:59:33;99673.38;;;19.53;nan
8523;BME280;4299;42.202;24.736;2022-07-23T02:02:00;99674.78;;;19.47;nan
8523;BME280;4299;42.202;24.736;2022-07-23T02:04:27;99678.41;;;19.46;nan
8523;BME280;4299;42.202;24.736;2022-07-23T02:06:53;99670.47;;;19.35;nan
8523;BME280;4299;42.202;24.736;2022-07-23T02:09:21;99671.56;;;19.23;nan
8523;BME280;4299;42.202;24.736;2022-07-23T02:11:48;99673.09;;;19.16;nan
8523;BME280;4299;42.202;24.736;2022-07-23T02:14:16;99668.44;;;19.18;nan
8523;BME280;4299;42.202;24.736;2022-07-23T02:16:42;99662.81;;;19.30;nan
8523;BME280;4299;42.202;24.736;2022-07-23T02:19:09;99662.59;;;19.43;nan
8523;BME280;4299;42.202;24.736;2022-07-23T02:21:36;99668.66;;;19.45;nan
8523;BME280;4299;42.202;24.736;2022-07-23T02:24:03;99671.63;;;19.42;nan
8523;BME280;4299;42.202;24.736;2022-07-23T02:26:30;99670.75;;;19.32;nan
8523;BME280;4299;42.202;24.736;2022-07-23T02:29:00;99663.34;;;19.24;nan
8523;BME280;4299;42.202;24.736;2022-07-23T02:31:28;99660.25;;;19.19;nan
8523;BME280;4299;42.202;24.736;2022-07-23T02:33:55;99676.31;;;19.10;nan
8523;BME280;4299;42.202;24.736;2022-07-23T02:36:22;99672.22;;;19.05;nan
8523;BME280;4299;42.202;24.736;2022-07-23T02:38:48;99670.03;;;18.99;nan
8523;BME280;4299;42.202;24.736;2022-07-23T02:41:15;99675.69;;;18.96;nan
8523;BME280;4299;42.202;24.736;2022-07-23T02:43:42;99681.06;;;18.96;nan
8523;BME280;4299;42.202;24.736;2022-07-23T02:46:08;99677.66;;;18.94;nan
8523;BME280;4299;42.202;24.736;2022-07-23T02:48:37;99676.25;;;18.90;nan
8523;BME280;4299;42.202;24.736;2022-07-23T02:51:03;99684.69;;;18.86;nan
8523;BME280;4299;42.202;24.736;2022-07-23T02:53:30;99688.63;;;18.82;nan
8523;BME280;4299;42.202;24.736;2022-07-23T02:55:57;99690.03;;;18.76;nan
8523;BME280;4299;42.202;24.736;2022-07-23T02:58:24;99683.19;;;18.72;nan
8523;BME280;4299;42.202;24.736;2022-07-23T03:00:52;99686.38;;;18.77;nan
8523;BME280;4299;42.202;24.736;2022-07-23T03:03:19;99688.84;;;18.69;nan
8523;BME280;4299;42.202;24.736;2022-07-23T03:05:47;99678.63;;;18.63;nan
8523;BME280;4299;42.202;24.736;2022-07-23T03:08:14;99676.72;;;18.54;nan
8523;BME280;4299;42.202;24.736;2022-07-23T03:10:41;99687.94;;;18.59;nan
8523;BME280;4299;42.202;24.736;2022-07-23T03:13:07;99689.19;;;18.85;nan
8523;BME280;4299;42.202;24.736;2022-07-23T03:15:34;99687.88;;;19.00;nan
8523;BME280;4299;42.202;24.736;2022-07-23T03:18:01;99689.50;;;19.13;nan
8523;BME280;4299;42.202;24.736;2022-07-23T03:20:28;99687.41;;;19.26;nan
8523;BME280;4299;42.202;24.736;2022-07-23T03:22:56;99693.81;;;19.44;nan
8523;BME280;4299;42.202;24.736;2022-07-23T03:25:23;99701.41;;;19.50;nan
8523;BME280;4299;42.202;24.736;2022-07-23T03:27:49;99698.16;;;19.56;nan
8523;BME280;4299;42.202;24.736;2022-07-23T03:30:16;99697.72;;;19.61;nan
8523;BME280;4299;42.202;24.736;2022-07-23T03:32:43;99691.25;;;19.63;nan
8523;BME280;4299;42.202;24.736;2022-07-23T03:35:10;99694.34;;;19.68;nan
8523;BME280;4299;42.202;24.736;2022-07-23T03:37:36;99707.69;;;19.79;nan
8523;BME280;4299;42.202;24.736;2022-07-23T03:40:06;99708.28;;;19.93;nan
8523;BME280;4299;42.202;24.736;2022-07-23T03:42:33;99712.78;;;20.02;nan
8523;BME280;4299;42.202;24.736;2022-07-23T03:45:00;99708.88;;;20.15;nan
8523;BME280;4299;42.202;24.736;2022-07-23T03:47:27;99705.47;;;20.23;nan
8523;BME280;4299;42.202;24.736;2022-07-23T03:49:53;99709.16;;;20.41;nan
8523;BME280;4299;42.202;24.736;2022-07-23T03:52:20;99698.06;;;20.64;nan
8523;BME280;4299;42.202;24.736;2022-07-23T03:54:47;99698.56;;;20.96;nan
8523;BME280;4299;42.202;24.736;2022-07-23T03:57:15;99699.03;;;21.28;nan
8523;BME280;4299;42.202;24.736;2022-07-23T03:59:41;99700.56;;;21.58;nan
8523;BME280;4299;42.202;24.736;2022-07-23T04:02:08;99695.59;;;21.81;nan
8523;BME280;4299;42.202;24.736;2022-07-23T04:04:35;99711.84;;;22.17;nan
8523;BME280;4299;42.202;24.736;2022-07-23T04:07:01;99711.81;;;22.52;nan
8523;BME280;4299;42.202;24.736;2022-07-23T04:09:28;99709.00;;;22.79;nan
8523;BME280;4299;42.202;24.736;2022-07-23T04:11:55;99707.66;;;23.01;nan
8523;BME280;4299;42.202;24.736;2022-07-23T04:14:23;99714.06;;;23.34;nan
8523;BME280;4299;42.202;24.736;2022-07-23T04:16:50;99706.47;;;23.72;nan
8523;BME280;4299;42.202;24.736;2022-07-23T04:19:16;99716.06;;;24.16;nan
8523;BME280;4299;42.202;24.736;2022-07-23T04:21:43;99719.19;;;24.54;nan
8523;BME280;4299;42.202;24.736;2022-07-23T04:24:10;99711.38;;;24.91;nan
8523;BME280;4299;42.202;24.736;2022-07-23T04:26:36;99719.09;;;25.18;nan
8523;BME280;4299;42.202;24.736;2022-07-23T04:29:03;99721.38;;;25.46;nan
8523;BME280;4299;42.202;24.736;2022-07-23T04:31:31;99718.16;;;25.89;nan
8523;BME280;4299;42.202;24.736;2022-07-23T04:33:58;99717.47;;;26.18;nan
8523;BME280;4299;42.202;24.736;2022-07-23T04:36:25;99724.00;;;26.55;nan
8523;BME280;4299;42.202;24.736;2022-07-23T04:38:52;99735.34;;;26.81;nan
8523;BME280;4299;42.202;24.736;2022-07-23T04:41:19;99735.09;;;26.91;nan
8523;BME280;4299;42.202;24.736;2022-07-23T04:43:45;99728.31;;;26.87;nan
8523;BME280;4299;42.202;24.736;2022-07-23T04:46:12;99724.84;;;26.55;nan
8523;BME280;4299;42.202;24.736;2022-07-23T04:48:40;99729.16;;;26.27;nan
8523;BME280;4299;42.202;24.736;2022-07-23T04:51:07;99725.72;;;25.71;nan
8523;BME280;4299;42.202;24.736;2022-07-23T04:53:36;99727.88;;;25.29;nan
8523;BME280;4299;42.202;24.736;2022-07-23T04:56:03;99723.38;;;25.05;nan
8523;BME280;4299;42.202;24.736;2022-07-23T04:58:30;99713.72;;;24.86;nan
8523;BME280;4299;42.202;24.736;2022-07-23T05:00:57;99717.78;;;24.82;nan
8523;BME280;4299;42.202;24.736;2022-07-23T05:03:24;99718.97;;;24.79;nan
8523;BME280;4299;42.202;24.736;2022-07-23T05:05:52;99719.50;;;24.67;nan
8523;BME280;4299;42.202;24.736;2022-07-23T05:08:18;99720.50;;;24.66;nan
8523;BME280;4299;42.202;24.736;2022-07-23T05:10:45;99728.97;;;24.71;nan
8523;BME280;4299;42.202;24.736;2022-07-23T05:13:14;99719.13;;;24.86;nan
8523;BME280;4299;42.202;24.736;2022-07-23T05:15:41;99725.75;;;24.92;nan
8523;BME280;4299;42.202;24.736;2022-07-23T05:18:08;99720.16;;;25.01;nan
8523;BME280;4299;42.202;24.736;2022-07-23T05:20:34;99721.84;;;25.10;nan
8523;BME280;4299;42.202;24.736;2022-07-23T05:23:03;99722.47;;;25.20;nan
8523;BME280;4299;42.202;24.736;2022-07-23T05:25:30;99715.00;;;25.23;nan
8523;BME280;4299;42.202;24.736;2022-07-23T05:27:56;99720.09;;;25.34;nan
8523;BME280;4299;42.202;24.736;2022-07-23T05:30:23;99713.91;;;25.48;nan
8523;BME280;4299;42.202;24.736;2022-07-23T05:32:50;99718.28;;;25.57;nan
8523;BME280;4299;42.202;24.736;2022-07-23T05:35:17;99718.91;;;25.75;nan
8523;BME280;4299;42.202;24.736;2022-07-23T05:37:43;99713.28;;;25.85;nan
8523;BME280;4299;42.202;24.736;2022-07-23T05:40:12;99716.47;;;25.88;nan
8523;BME280;4299;42.202;24.736;2022-07-23T05:42:40;99724.25;;;25.91;nan
8523;BME280;4299;42.202;24.736;2022-07-23T05:45:08;99714.00;;;26.02;nan
8523;BME280;4299;42.202;24.736;2022-07-23T05:47:41;99720.34;;;26.17;nan
8523;BME280;4299;42.202;24.736;2022-07-23T05:50:09;99721.31;;;26.24;nan
8523;BME280;4299;42.202;24.736;2022-07-23T05:52:36;99718.56;;;26.32;nan
8523;BME280;4299;42.202;24.736;2022-07-23T05:55:04;99726.06;;;26.53;nan
8523;BME280;4299;42.202;24.736;2022-07-23T05:57:32;99726.88;;;26.76;nan
8523;BME280;4299;42.202;24.736;2022-07-23T05:59:59;99723.25;;;26.84;nan
8523;BME280;4299;42.202;24.736;2022-07-23T06:02:26;99721.19;;;26.86;nan
8523;BME280;4299;42.202;24.736;2022-07-23T06:04:53;99722.16;;;26.93;nan
8523;BME280;4299;42.202;24.736;2022-07-23T06:07:19;99720.69;;;27.05;nan
8523;BME280;4299;42.202;24.736;2022-07-23T06:09:46;99722.19;;;27.22;nan
8523;BME280;4299;42.202;24.736;2022-07-23T06:12:14;99718.63;;;27.36;nan
8523;BME280;4299;42.202;24.736;2022-07-23T06:14:42;99721.53;;;27.49;nan
8523;BME280;4299;42.202;24.736;2022-07-23T06:17:09;99714.81;;;27.60;nan
8523;BME280;4299;42.202;24.736;2022-07-23T06:19:36;99716.34;;;27.84;nan
8523;BME280;4299;42.202;24.736;2022-07-23T06:22:03;99722.34;;;27.94;nan
8523;BME280;4299;42.202;24.736;2022-07-23T06:24:29;99722.88;;;28.04;nan
8523;BME280;4299;42.202;24.736;2022-07-23T06:26:56;99725.78;;;28.17;nan
8523;BME280;4299;42.202;24.736;2022-07-23T06:29:23;99717.72;;;28.31;nan
8523;BME280;4299;42.202;24.736;2022-07-23T06:31:51;99713.72;;;28.48;nan
8523;BME280;4299;42.202;24.736;2022-07-23T06:34:18;99720.56;;;28.65;nan
8523;BME280;4299;42.202;24.736;2022-07-23T06:36:44;99715.53;;;28.83;nan
8523;BME280;4299;42.202;24.736;2022-07-23T06:39:11;99721.63;;;28.85;nan
8523;BME280;4299;42.202;24.736;2022-07-23T06:41:38;99709.91;;;28.91;nan
8523;BME280;4299;42.202;24.736;2022-07-23T06:44:04;99714.16;;;29.00;nan
8523;BME280;4299;42.202;24.736;2022-07-23T06:46:31;99712.16;;;29.16;nan
8523;BME280;4299;42.202;24.736;2022-07-23T06:48:59;99710.69;;;29.41;nan
8523;BME280;4299;42.202;24.736;2022-07-23T06:51:26;99710.75;;;29.54;nan
8523;BME280;4299;42.202;24.736;2022-07-23T06:53:53;99708.72;;;29.69;nan
8523;BME280;4299;42.202;24.736;2022-07-23T06:56:19;99705.59;;;29.72;nan
8523;BME280;4299;42.202;24.736;2022-07-23T06:58:46;99710.88;;;29.80;nan
8523;BME280;4299;42.202;24.736;2022-07-23T07:01:13;99696.97;;;29.82;nan
8523;BME280;4299;42.202;24.736;2022-07-23T07:03:40;99703.13;;;29.91;nan
8523;BME280;4299;42.202;24.736;2022-07-23T07:06:08;99706.53;;;29.93;nan
8523;BME280;4299;42.202;24.736;2022-07-23T07:08:35;99705.31;;;30.02;nan
8523;BME280;4299;42.202;24.736;2022-07-23T07:11:02;99695.47;;;30.27;nan
8523;BME280;4299;42.202;24.736;2022-07-23T07:13:29;99703.09;;;30.51;nan
8523;BME280;4299;42.202;24.736;2022-07-23T07:15:56;99698.47;;;30.59;nan
8523;BME280;4299;42.202;24.736;2022-07-23T07:18:22;99696.78;;;30.64;nan
8523;BME280;4299;42.202;24.736;2022-07-23T07:20:49;99701.41;;;30.64;nan
8523;BME280;4299;42.202;24.736;2022-07-23T07:23:17;99691.94;;;30.73;nan
8523;BME280;4299;42.202;24.736;2022-07-23T07:25:46;99695.94;;;30.77;nan
8523;BME280;4299;42.202;24.736;2022-07-23T07:28:12;99692.97;;;30.98;nan
8523;BME280;4299;42.202;24.736;2022-07-23T07:30:39;99693.59;;;31.13;nan
8523;BME280;4299;42.202;24.736;2022-07-23T07:33:06;99686.19;;;31.27;nan
8523;BME280;4299;42.202;24.736;2022-07-23T07:35:33;99687.84;;;31.34;nan
8523;BME280;4299;42.202;24.736;2022-07-23T07:38:00;99686.78;;;31.49;nan
8523;BME280;4299;42.202;24.736;2022-07-23T07:40:28;99679.50;;;31.81;nan
8523;BME280;4299;42.202;24.736;2022-07-23T07:42:55;99676.63;;;32.00;nan
8523;BME280;4299;42.202;24.736;2022-07-23T07:45:23;99682.06;;;32.14;nan
8523;BME280;4299;42.202;24.736;2022-07-23T07:47:51;99681.25;;;32.06;nan
8523;BME280;4299;42.202;24.736;2022-07-23T07:50:18;99681.63;;;32.17;nan
8523;BME280;4299;42.202;24.736;2022-07-23T07:52:45;99671.34;;;32.37;nan
8523;BME280;4299;42.202;24.736;2022-07-23T07:55:12;99674.63;;;32.52;nan
8523;BME280;4299;42.202;24.736;2022-07-23T07:57:41;99665.16;;;32.79;nan
8523;BME280;4299;42.202;24.736;2022-07-23T08:00:09;99668.25;;;33.08;nan
8523;BME280;4299;42.202;24.736;2022-07-23T08:02:44;99663.25;;;33.23;nan
8523;BME280;4299;42.202;24.736;2022-07-23T08:05:12;99662.88;;;33.38;nan
8523;BME280;4299;42.202;24.736;2022-07-23T08:07:39;99667.81;;;33.47;nan
8523;BME280;4299;42.202;24.736;2022-07-23T08:10:07;99664.78;;;33.37;nan
8523;BME280;4299;42.202;24.736;2022-07-23T08:12:41;99664.69;;;33.26;nan
8523;BME280;4299;42.202;24.736;2022-07-23T08:15:10;99657.91;;;33.28;nan
8523;BME280;4299;42.202;24.736;2022-07-23T08:17:37;99651.88;;;33.38;nan
8523;BME280;4299;42.202;24.736;2022-07-23T08:20:05;99655.13;;;33.46;nan
8523;BME280;4299;42.202;24.736;2022-07-23T08:22:42;99654.97;;;33.59;nan
8523;BME280;4299;42.202;24.736;2022-07-23T08:25:09;99639.38;;;33.53;nan
8523;BME280;4299;42.202;24.736;2022-07-23T08:27:36;99633.97;;;33.47;nan
8523;BME280;4299;42.202;24.736;2022-07-23T08:30:06;99635.13;;;33.57;nan
8523;BME280;4299;42.202;24.736;2022-07-23T08:32:33;99634.03;;;33.77;nan
8523;BME280;4299;42.202;24.736;2022-07-23T08:34:59;99637.94;;;33.99;nan
8523;BME280;4299;42.202;24.736;2022-07-23T08:37:26;99635.41;;;33.97;nan
8523;BME280;4299;42.202;24.736;2022-07-23T08:39:53;99638.69;;;34.06;nan
8523;BME280;4299;42.202;24.736;2022-07-23T08:42:21;99627.44;;;34.26;nan
8523;BME280;4299;42.202;24.736;2022-07-23T08:44:48;99631.19;;;34.55;nan
8523;BME280;4299;42.202;24.736;2022-07-23T08:47:16;99626.41;;;34.85;nan
8523;BME280;4299;42.202;24.736;2022-07-23T08:49:43;99631.91;;;35.08;nan
8523;BME280;4299;42.202;24.736;2022-07-23T08:52:11;99625.53;;;35.31;nan
8523;BME280;4299;42.202;24.736;2022-07-23T08:54:38;99626.31;;;35.55;nan
8523;BME280;4299;42.202;24.736;2022-07-23T08:57:05;99623.50;;;35.67;nan
8523;BME280;4299;42.202;24.736;2022-07-23T08:59:32;99625.75;;;35.81;nan
8523;BME280;4299;42.202;24.736;2022-07-23T09:01:59;99615.75;;;35.92;nan
8523;BME280;4299;42.202;24.736;2022-07-23T09:04:27;99606.69;;;36.25;nan
8523;BME280;4299;42.202;24.736;2022-07-23T09:06:54;99609.63;;;36.18;nan
8523;BME280;4299;42.202;24.736;2022-07-23T09:09:22;99615.97;;;36.19;nan
8523;BME280;4299;42.202;24.736;2022-07-23T09:12:03;99617.34;;;36.33;nan
8523;BME280;4299;42.202;24.736;2022-07-23T09:14:37;99621.59;;;36.24;nan
8523;BME280;4299;42.202;24.736;2022-07-23T09:17:11;99618.63;;;36.14;nan
8523;BME280;4299;42.202;24.736;2022-07-23T09:19:40;99605.56;;;36.09;nan
8523;BME280;4299;42.202;24.736;2022-07-23T09:22:20;99607.59;;;36.14;nan
8523;BME280;4299;42.202;24.736;2022-07-23T09:25:08;99613.50;;;36.34;nan
8523;BME280;4299;42.202;24.736;2022-07-23T09:28:02;99609.28;;;36.32;nan
8523;BME280;4299;42.202;24.736;2022-07-23T09:30:31;99617.97;;;36.07;nan
8523;BME280;4299;42.202;24.736;2022-07-23T09:33:07;99604.53;;;36.27;nan
8523;BME280;4299;42.202;24.736;2022-07-23T09:35:46;99600.28;;;36.36;nan
8523;BME280;4299;42.202;24.736;2022-07-23T09:38:14;99596.31;;;36.32;nan
8523;BME280;4299;42.202;24.736;2022-07-23T09:40:40;99593.25;;;36.45;nan
8523;BME280;4299;42.202;24.736;2022-07-23T09:43:07;99592.81;;;36.53;nan
8523;BME280;4299;42.202;24.736;2022-07-23T09:45:34;99586.56;;;36.75;nan
8523;BME280;4299;42.202;24.736;2022-07-23T09:48:11;99587.13;;;37.15;nan
8523;BME280;4299;42.202;24.736;2022-07-23T09:50:39;99581.84;;;37.35;nan
8523;BME280;4299;42.202;24.736;2022-07-23T09:53:08;99577.78;;;37.43;nan
8523;BME280;4299;42.202;24.736;2022-07-23T09:55:36;99588.91;;;37.26;nan
8523;BME280;4299;42.202;24.736;2022-07-23T09:58:05;99575.56;;;37.18;nan
8523;BME280;4299;42.202;24.736;2022-07-23T10:00:33;99586.31;;;36.98;nan
8523;BME280;4299;42.202;24.736;2022-07-23T10:03:01;99584.19;;;37.05;nan
8523;BME280;4299;42.202;24.736;2022-07-23T10:05:30;99578.59;;;37.17;nan
8523;BME280;4299;42.202;24.736;2022-07-23T10:07:57;99573.31;;;37.37;nan
8523;BME280;4299;42.202;24.736;2022-07-23T10:10:28;99581.72;;;37.69;nan
8523;BME280;4299;42.202;24.736;2022-07-23T10:12:55;99577.53;;;37.93;nan
8523;BME280;4299;42.202;24.736;2022-07-23T10:15:45;99569.50;;;38.18;nan
8523;BME280;4299;42.202;24.736;2022-07-23T10:18:13;99570.72;;;38.33;nan
8523;BME280;4299;42.202;24.736;2022-07-23T10:20:40;99569.75;;;38.49;nan
8523;BME280;4299;42.202;24.736;2022-07-23T10:23:14;99569.88;;;38.64;nan
8523;BME280;4299;42.202;24.736;2022-07-23T10:25:48;99563.66;;;38.52;nan
8523;BME280;4299;42.202;24.736;2022-07-23T10:28:42;99556.38;;;38.41;nan
8523;BME280;4299;42.202;24.736;2022-07-23T10:31:23;99555.91;;;38.49;nan
8523;BME280;4299;42.202;24.736;2022-07-23T10:33:56;99551.25;;;38.60;nan
8523;BME280;4299;42.202;24.736;2022-07-23T10:36:30;99548.88;;;38.78;nan
8523;BME280;4299;42.202;24.736;2022-07-23T10:39:04;99544.56;;;38.98;nan
8523;BME280;4299;42.202;24.736;2022-07-23T10:41:34;99546.03;;;38.68;nan
8523;BME280;4299;42.202;24.736;2022-07-23T10:44:09;99538.00;;;38.30;nan
8523;BME280;4299;42.202;24.736;2022-07-23T10:46:36;99536.25;;;38.18;nan
8523;BME280;4299;42.202;24.736;2022-07-23T10:49:24;99536.50;;;38.12;nan
8523;BME280;4299;42.202;24.736;2022-07-23T10:52:24;99531.56;;;38.19;nan
8523;BME280;4299;42.202;24.736;2022-07-23T10:54:53;99526.03;;;38.19;nan
8523;BME280;4299;42.202;24.736;2022-07-23T10:57:23;99527.31;;;38.06;nan
8523;BME280;4299;42.202;24.736;2022-07-23T11:00:15;99515.13;;;38.07;nan
8523;BME280;4299;42.202;24.736;2022-07-23T11:02:45;99511.81;;;38.10;nan
8523;BME280;4299;42.202;24.736;2022-07-23T11:05:13;99506.38;;;38.21;nan
8523;BME280;4299;42.202;24.736;2022-07-23T11:10:52;99502.44;;;38.11;nan
8523;BME280;4299;42.202;24.736;2022-07-23T11:13:48;99502.78;;;38.62;nan
8523;BME280;4299;42.202;24.736;2022-07-23T11:16:25;99510.44;;;38.92;nan
8523;BME280;4299;42.202;24.736;2022-07-23T11:19:06;99499.69;;;39.11;nan
8523;BME280;4299;42.202;24.736;2022-07-23T11:22:00;99499.22;;;39.29;nan
8523;BME280;4299;42.202;24.736;2022-07-23T11:24:27;99494.81;;;39.38;nan
8523;BME280;4299;42.202;24.736;2022-07-23T11:27:04;99493.75;;;39.69;nan
8523;BME280;4299;42.202;24.736;2022-07-23T11:29:46;99494.31;;;39.61;nan
8523;BME280;4299;42.202;24.736;2022-07-23T11:32:32;99489.56;;;39.42;nan
8523;BME280;4299;42.202;24.736;2022-07-23T11:35:00;99489.84;;;39.45;nan
8523;BME280;4299;42.202;24.736;2022-07-23T11:37:36;99473.78;;;39.73;nan
8523;BME280;4299;42.202;24.736;2022-07-23T11:40:06;99472.97;;;40.02;nan
8523;BME280;4299;42.202;24.736;2022-07-23T11:42:34;99476.88;;;40.32;nan
8523;BME280;4299;42.202;24.736;2022-07-23T11:45:04;99477.09;;;40.51;nan
8523;BME280;4299;42.202;24.736;2022-07-23T11:47:31;99469.28;;;40.58;nan
8523;BME280;4299;42.202;24.736;2022-07-23T11:49:59;99473.19;;;40.67;nan
8523;BME280;4299;42.202;24.736;2022-07-23T11:52:27;99470.91;;;40.79;nan
8523;BME280;4299;42.202;24.736;2022-07-23T11:54:56;99471.78;;;40.59;nan
8523;BME280;4299;42.202;24.736;2022-07-23T11:57:25;99466.47;;;40.63;nan
8523;BME280;4299;42.202;24.736;2022-07-23T11:59:54;99464.22;;;40.80;nan
8523;BME280;4299;42.202;24.736;2022-07-23T12:02:23;99464.72;;;40.97;nan
8523;BME280;4299;42.202;24.736;2022-07-23T12:04:52;99456.63;;;41.01;nan
8523;BME280;4299;42.202;24.736;2022-07-23T12:07:29;99464.19;;;40.85;nan
8523;BME280;4299;42.202;24.736;2022-07-23T12:09:57;99460.88;;;40.83;nan
8523;BME280;4299;42.202;24.736;2022-07-23T12:12:25;99457.56;;;40.81;nan
8523;BME280;4299;42.202;24.736;2022-07-23T12:14:53;99455.34;;;40.73;nan
8523;BME280;4299;42.202;24.736;2022-07-23T12:17:21;99451.97;;;40.91;nan
8523;BME280;4299;42.202;24.736;2022-07-23T12:19:54;99444.13;;;40.93;nan
8523;BME280;4299;42.202;24.736;2022-07-23T12:22:23;99444.75;;;40.80;nan
8523;BME280;4299;42.202;24.736;2022-07-23T12:24:56;99442.84;;;40.75;nan
8523;BME280;4299;42.202;24.736;2022-07-23T12:27:24;99434.16;;;40.87;nan
8523;BME280;4299;42.202;24.736;2022-07-23T12:29:51;99436.84;;;41.12;nan
8523;BME280;4299;42.202;24.736;2022-07-23T12:32:20;99429.47;;;41.32;nan
8523;BME280;4299;42.202;24.736;2022-07-23T12:34:51;99419.34;;;41.46;nan
8523;BME280;4299;42.202;24.736;2022-07-23T12:37:33;99434.22;;;41.70;nan
8523;BME280;4299;42.202;24.736;2022-07-23T12:40:21;99420.25;;;41.75;nan
8523;BME280;4299;42.202;24.736;2022-07-23T12:42:50;99417.03;;;41.63;nan
8523;BME280;4299;42.202;24.736;2022-07-23T12:45:17;99413.28;;;41.39;nan
8523;BME280;4299;42.202;24.736;2022-07-23T12:48:15;99408.28;;;41.36;nan
8523;BME280;4299;42.202;24.736;2022-07-23T12:50:44;99415.25;;;41.38;nan
8523;BME280;4299;42.202;24.736;2022-07-23T12:53:17;99409.19;;;41.70;nan
8523;BME280;4299;42.202;24.736;2022-07-23T12:55:45;99404.50;;;41.94;nan
8523;BME280;4299;42.202;24.736;2022-07-23T12:58:14;99395.13;;;42.14;nan
8523;BME280;4299;42.202;24.736;2022-07-23T13:00:53;99395.19;;;42.33;nan
8523;BME280;4299;42.202;24.736;2022-07-23T13:03:26;99395.31;;;42.47;nan
8523;BME280;4299;42.202;24.736;2022-07-23T13:05:54;99388.44;;;42.39;nan
8523;BME280;4299;42.202;24.736;2022-07-23T13:08:22;99385.91;;;42.43;nan
8523;BME280;4299;42.202;24.736;2022-07-23T13:10:49;99383.56;;;42.26;nan
8523;BME280;4299;42.202;24.736;2022-07-23T13:13:20;99381.38;;;41.94;nan
8523;BME280;4299;42.202;24.736;2022-07-23T13:15:48;99382.81;;;41.91;nan
8523;BME280;4299;42.202;24.736;2022-07-23T13:18:14;99379.28;;;42.10;nan
8523;BME280;4299;42.202;24.736;2022-07-23T13:20:42;99380.69;;;42.31;nan
8523;BME280;4299;42.202;24.736;2022-07-23T13:23:08;99374.78;;;42.61;nan
8523;BME280;4299;42.202;24.736;2022-07-23T13:25:36;99373.41;;;42.83;nan
8523;BME280;4299;42.202;24.736;2022-07-23T13:28:03;99373.03;;;43.08;nan
8523;BME280;4299;42.202;24.736;2022-07-23T13:30:30;99380.06;;;43.24;nan
8523;BME280;4299;42.202;24.736;2022-07-23T13:32:56;99376.31;;;43.15;nan
8523;BME280;4299;42.202;24.736;2022-07-23T13:35:23;99372.50;;;42.87;nan
8523;BME280;4299;42.202;24.736;2022-07-23T13:37:50;99370.00;;;42.86;nan
8523;BME280;4299;42.202;24.736;2022-07-23T13:40:16;99375.50;;;44.26;nan
8523;BME280;4299;42.202;24.736;2022-07-23T13:42:44;99378.56;;;45.64;nan
8523;BME280;4299;42.202;24.736;2022-07-23T13:45:10;99384.78;;;47.02;nan